首页
METAR-TAF:

METAR-TAF

机场 :

海法, 以色列

纬度: 32-48N, 经度: 035-02E, 海拔: 8米

当前天气观测

该预报发布于11分钟前的08:50 UTC
风速10节,风向西北,在西转西北之间变化
温度 24°C
湿度 61%
气压 1013 hPa
能见度10公里或以上
少量云层高于3200英尺

METAR: LLHA 300850Z 32010KT 290V350 9999 FEW032 24/16 Q1013

时间: 12:01 (09:01 UTC)

预报

该预报发布于4小时和0分钟前的05:01 UTC
预报有效从30日的 06点(UTC)到 31日的 06点(UTC)
风速12节,风向西转西北
能见度10公里或以上
少量云层高于3000英尺
短暂存在
从 30日的 06点(UTC)到 30日的 09点(UTC)
风速4节,风向多变
成为
从 30日的 15点(UTC)到 30日的 17点(UTC)
风速3节,风向多变
少量云层高于2000英尺
短暂存在
从 30日的 17点(UTC)到 30日的 23点(UTC)
风速5节,风向西北
几率 30%
从 30日的 23点(UTC)到 31日的 05点(UTC)
风速4节,风向南转南东
多云层高于1500英尺

TAF: LLHA 300501Z 3006/3106 30012KT 9999 FEW030 TEMPO 3006/3009 VRB04KT BECMG 3015/3017 VRB03KT FEW020 TEMPO 3017/3023 32005KT PROB30 3023/3105 15004KT BKN015 TX26/3010Z TN18/3103Z

超过4000个机场的气象观测和天气预报(METAR&TAF报告)。

可查询的气象台以黄色和红色小点在地图上表示。

将鼠标移到小点上方,可查看气象台名称。

然后点击查看天气观测和预报。

如需切换地图:点击带黑十字的绿色按钮放大地图;点击带横线的绿色按钮缩小地图;或者点击绿色箭头查看邻近地区的地图。


METAR-TAF: